createdAt,value
2019-05-06T00:00:14.022Z,4.08
2019-05-06T00:02:43.628Z,3.88
2019-05-06T00:05:14.286Z,3.81
2019-05-06T00:07:45.589Z,3.73
2019-05-06T00:10:25.964Z,3.62
2019-05-06T00:12:55.225Z,3.43
2019-05-06T00:15:24.044Z,3.17
2019-05-06T00:17:53.914Z,2.93
2019-05-06T00:20:24.314Z,2.85
2019-05-06T00:22:55.661Z,2.96
2019-05-06T00:25:34.726Z,2.46
2019-05-06T00:28:21.760Z,2.17
2019-05-06T00:30:54.465Z,1.81
2019-05-06T00:33:24.263Z,1.70
2019-05-06T00:35:53.865Z,1.51
2019-05-06T00:38:24.495Z,1.31
2019-05-06T00:40:56.143Z,1.09
2019-05-06T00:43:24.921Z,1.24
2019-05-06T00:45:53.775Z,1.14
2019-05-06T00:48:24.298Z,1.17
2019-05-06T00:50:53.568Z,1.19
2019-05-06T00:53:24.560Z,0.99
2019-05-06T00:55:53.777Z,1.03
2019-05-06T00:58:23.857Z,0.91
2019-05-06T01:00:53.870Z,0.78
2019-05-06T01:03:23.795Z,0.70
2019-05-06T01:05:54.222Z,0.66
2019-05-06T01:08:23.937Z,0.59
2019-05-06T01:10:54.474Z,0.40
2019-05-06T01:13:38.036Z,0.18
2019-05-06T01:16:08.342Z,0.23
2019-05-06T01:18:37.373Z,0.34
2019-05-06T01:21:14.351Z,0.37
2019-05-06T01:23:44.323Z,0.25
2019-05-06T01:26:15.428Z,0.11
2019-05-06T01:28:45.117Z,0.02
2019-05-06T01:31:14.191Z,0.20
2019-05-06T01:33:45.058Z,0.10
2019-05-06T01:36:14.107Z,0.12
2019-05-06T01:39:14.994Z,0.30
2019-05-06T01:41:49.755Z,0.35
2019-05-06T01:44:18.915Z,0.26
2019-05-06T01:46:47.585Z,0.06
2019-05-06T01:49:16.260Z,0.24
2019-05-06T01:51:45.031Z,0.39
2019-05-06T01:54:14.266Z,0.28
2019-05-06T01:56:44.410Z,0.27
2019-05-06T01:59:14.085Z,0.28
2019-05-06T02:01:54.974Z,0.55
2019-05-06T02:04:14.009Z,0.57
2019-05-06T02:06:43.765Z,0.58
2019-05-06T02:09:17.960Z,0.69
2019-05-06T02:11:48.114Z,0.73
2019-05-06T02:14:17.111Z,0.67
2019-05-06T02:16:45.810Z,0.59
2019-05-06T02:19:14.913Z,0.39
2019-05-06T02:22:13.686Z,0.47
2019-05-06T02:24:46.474Z,0.38
2019-05-06T02:27:15.826Z,0.08
2019-05-06T02:29:50.513Z,0.31
2019-05-06T02:32:31.469Z,0.35
2019-05-06T02:35:06.139Z,0.18
2019-05-06T02:37:37.542Z,0.15
2019-05-06T02:40:17.187Z,0.23
2019-05-06T02:42:45.893Z,0.30
2019-05-06T02:45:14.699Z,0.11
2019-05-06T02:47:53.789Z,0.18
2019-05-06T02:50:24.473Z,0.32
2019-05-06T02:52:53.858Z,0.49
2019-05-06T02:55:23.585Z,0.71
2019-05-06T02:57:53.651Z,0.85
2019-05-06T03:00:23.904Z,1.11
2019-05-06T03:02:54.100Z,1.28
2019-05-06T03:05:23.843Z,1.32
2019-05-06T03:07:57.043Z,1.27
2019-05-06T03:10:24.628Z,1.31
2019-05-06T03:12:54.057Z,1.37
2019-05-06T03:15:23.902Z,1.29
2019-05-06T03:17:55.308Z,1.39
2019-05-06T03:20:47.812Z,1.40
2019-05-06T03:23:18.073Z,1.44
2019-05-06T03:25:46.761Z,1.57
2019-05-06T03:28:15.461Z,1.62
2019-05-06T03:30:45.982Z,1.68
2019-05-06T03:33:37.678Z,1.57
2019-05-06T03:36:00.557Z,1.69
2019-05-06T03:38:15.418Z,1.76
2019-05-06T03:40:45.885Z,1.68
2019-05-06T03:43:15.977Z,1.66
2019-05-06T03:45:57.491Z,1.67
2019-05-06T03:48:33.079Z,1.70
2019-05-06T03:51:00.251Z,1.87
2019-05-06T03:53:33.343Z,1.90
2019-05-06T03:56:03.370Z,1.93
2019-05-06T03:58:36.577Z,1.86
2019-05-06T04:01:05.336Z,1.86
2019-05-06T04:03:46.864Z,2.11
2019-05-06T04:06:05.384Z,2.21
2019-05-06T04:08:35.383Z,2.29
2019-05-06T04:11:05.009Z,2.34
2019-05-06T04:13:35.537Z,2.38
2019-05-06T04:16:23.212Z,2.29
2019-05-06T04:18:59.200Z,2.42
2019-05-06T04:21:43.661Z,2.51
2019-05-06T04:24:22.736Z,2.46
2019-05-06T04:27:05.597Z,2.49
2019-05-06T04:29:35.578Z,2.54
2019-05-06T04:32:05.185Z,2.57
2019-05-06T04:34:34.002Z,2.70
2019-05-06T04:37:03.484Z,2.81
2019-05-06T04:39:33.176Z,2.71
2019-05-06T04:42:03.453Z,2.78
2019-05-06T04:44:33.086Z,2.93
2019-05-06T04:47:05.275Z,3.12
2019-05-06T04:49:33.346Z,3.39
2019-05-06T04:52:03.675Z,3.45
2019-05-06T04:54:33.692Z,3.56
2019-05-06T04:57:05.043Z,3.61
2019-05-06T04:59:34.302Z,3.89
2019-05-06T05:02:03.204Z,3.96
2019-05-06T05:04:36.520Z,4.21
2019-05-06T05:07:03.456Z,4.37
2019-05-06T05:09:32.701Z,4.57
2019-05-06T05:12:07.631Z,4.71
2019-05-06T05:14:45.890Z,4.89
2019-05-06T05:17:29.151Z,5.12
2019-05-06T05:19:57.960Z,5.31
2019-05-06T05:22:26.705Z,5.47
2019-05-06T05:24:56.021Z,5.64
2019-05-06T05:27:24.788Z,5.69
2019-05-06T05:29:53.557Z,5.80
2019-05-06T05:32:22.618Z,5.96
2019-05-06T05:34:52.251Z,5.90
2019-05-06T05:37:22.837Z,5.79
2019-05-06T05:39:52.338Z,5.85
2019-05-06T05:42:42.384Z,5.80
2019-05-06T05:45:12.849Z,5.81
2019-05-06T05:47:42.544Z,5.85
2019-05-06T05:50:17.710Z,5.91
2019-05-06T05:52:46.718Z,5.96
2019-05-06T05:55:15.303Z,5.92
2019-05-06T05:57:46.929Z,5.98
2019-05-06T06:00:22.515Z,5.93
2019-05-06T06:02:54.494Z,5.93
2019-05-06T06:05:24.387Z,6.08
2019-05-06T06:07:53.152Z,6.14
2019-05-06T06:10:28.102Z,6.15
2019-05-06T06:13:03.133Z,6.26
2019-05-06T06:16:03.798Z,6.40
2019-05-06T06:18:45.969Z,6.41
2019-05-06T06:21:34.316Z,6.52
2019-05-06T06:24:13.109Z,6.66
2019-05-06T06:26:42.933Z,6.72
2019-05-06T06:29:12.652Z,6.80
2019-05-06T06:31:49.868Z,6.94
2019-05-06T06:34:23.799Z,6.85
2019-05-06T06:37:02.657Z,7.07
2019-05-06T06:39:36.887Z,6.99
2019-05-06T06:42:05.832Z,7.26
2019-05-06T06:44:35.605Z,7.24
2019-05-06T06:47:04.432Z,7.14
2019-05-06T06:49:33.408Z,7.45
2019-05-06T06:52:03.002Z,7.51
2019-05-06T06:54:32.449Z,7.32
2019-05-06T06:57:35.405Z,7.46
2019-05-06T07:00:26.796Z,7.75
2019-05-06T07:03:02.588Z,7.79
2019-05-06T07:05:53.330Z,7.75
2019-05-06T07:08:34.048Z,7.83
2019-05-06T07:10:52.639Z,7.90
2019-05-06T07:13:23.218Z,8.17
2019-05-06T07:15:52.138Z,8.40
2019-05-06T07:18:22.543Z,8.89
2019-05-06T07:21:05.606Z,8.77
2019-05-06T07:23:35.118Z,8.27
2019-05-06T07:26:03.853Z,8.60
2019-05-06T07:28:32.803Z,8.85
2019-05-06T07:31:17.335Z,9.19
2019-05-06T07:33:33.453Z,8.72
2019-05-06T07:36:02.449Z,9.20
2019-05-06T07:38:32.641Z,9.22
2019-05-06T07:41:14.421Z,8.87
2019-05-06T07:43:56.206Z,8.99
2019-05-06T07:46:37.978Z,8.43
2019-05-06T07:49:06.679Z,9.03
2019-05-06T07:51:35.342Z,9.02
2019-05-06T07:54:04.068Z,9.11
2019-05-06T07:56:32.835Z,8.93
2019-05-06T07:59:12.576Z,8.53
2019-05-06T08:01:43.837Z,8.78
2019-05-06T08:04:12.230Z,8.85
2019-05-06T08:06:42.625Z,9.14
2019-05-06T08:09:13.007Z,9.33
2019-05-06T08:11:42.341Z,8.97
2019-05-06T08:14:13.076Z,9.42
2019-05-06T08:17:04.266Z,9.32
2019-05-06T08:19:33.730Z,9.73
2019-05-06T08:22:05.063Z,10.00
2019-05-06T08:24:33.719Z,10.20
2019-05-06T08:27:02.925Z,10.30
2019-05-06T08:29:33.088Z,10.05
2019-05-06T08:32:02.982Z,10.46
2019-05-06T08:34:33.947Z,10.07
2019-05-06T08:37:12.074Z,9.95
2019-05-06T08:39:43.908Z,10.21
2019-05-06T08:42:13.524Z,10.02
2019-05-06T08:44:42.712Z,10.02
2019-05-06T08:47:13.289Z,9.96
2019-05-06T08:50:03.533Z,10.14
2019-05-06T08:52:52.296Z,10.12
2019-05-06T08:55:28.300Z,10.90
2019-05-06T08:57:57.026Z,10.02
2019-05-06T09:00:25.689Z,9.85
2019-05-06T09:02:54.354Z,9.92
2019-05-06T09:05:23.316Z,10.02
2019-05-06T09:07:52.377Z,10.08
2019-05-06T09:10:22.718Z,10.32
2019-05-06T09:12:52.527Z,10.26
2019-05-06T09:15:22.009Z,9.89
2019-05-06T09:17:52.624Z,9.67
2019-05-06T09:20:23.262Z,9.52
2019-05-06T09:22:52.189Z,9.85
2019-05-06T09:25:23.011Z,10.49
2019-05-06T09:28:02.586Z,10.25
2019-05-06T09:30:39.828Z,11.12
2019-05-06T09:33:08.945Z,11.15
2019-05-06T09:35:37.623Z,10.38
2019-05-06T09:38:06.357Z,10.58
2019-05-06T09:40:35.041Z,10.20
2019-05-06T09:43:04.765Z,10.67
2019-05-06T09:45:33.598Z,10.84
2019-05-06T09:48:09.178Z,10.64
2019-05-06T09:50:45.384Z,10.23
2019-05-06T09:53:16.306Z,10.08
2019-05-06T09:56:04.084Z,10.22
2019-05-06T09:58:33.720Z,10.84
2019-05-06T10:01:03.441Z,10.37
2019-05-06T10:03:32.342Z,10.34
2019-05-06T10:06:02.676Z,10.18
2019-05-06T10:08:32.525Z,10.30
2019-05-06T10:11:03.126Z,10.88
2019-05-06T10:13:32.725Z,11.21
2019-05-06T10:16:02.964Z,11.32
2019-05-06T10:18:32.009Z,12.35
2019-05-06T10:21:00.726Z,13.12
2019-05-06T10:23:29.385Z,12.53
2019-05-06T10:25:58.144Z,11.83
2019-05-06T10:28:33.699Z,11.32
2019-05-06T10:31:04.712Z,11.48
2019-05-06T10:33:34.033Z,11.62
2019-05-06T10:36:03.773Z,12.41
2019-05-06T10:38:49.896Z,12.32
2019-05-06T10:41:22.569Z,11.35
2019-05-06T10:44:03.039Z,10.77
2019-05-06T10:46:31.755Z,11.13
2019-05-06T10:49:02.445Z,10.98
2019-05-06T10:51:39.041Z,10.61
2019-05-06T10:54:07.735Z,10.58
2019-05-06T10:56:57.389Z,10.77
2019-05-06T10:59:25.552Z,11.46
2019-05-06T11:01:56.811Z,13.50
2019-05-06T11:04:25.475Z,14.09
2019-05-06T11:06:54.232Z,14.59
2019-05-06T11:09:22.895Z,15.19
2019-05-06T11:11:51.554Z,13.67
2019-05-06T11:14:22.714Z,12.90
2019-05-06T11:16:50.640Z,12.66
2019-05-06T11:19:19.295Z,11.90
2019-05-06T11:21:47.989Z,11.49
2019-05-06T11:24:16.753Z,11.48
2019-05-06T11:26:45.414Z,12.11
2019-05-06T11:29:20.106Z,12.59
2019-05-06T11:32:14.879Z,13.36
2019-05-06T11:35:05.380Z,13.78
2019-05-06T11:38:08.556Z,13.18
2019-05-06T11:40:37.224Z,13.00
2019-05-06T11:43:05.915Z,12.35
2019-05-06T11:45:34.637Z,12.54
2019-05-06T11:48:03.368Z,13.34
2019-05-06T11:50:33.467Z,13.12
2019-05-06T11:53:02.568Z,13.04
2019-05-06T11:55:38.036Z,13.39
2019-05-06T11:58:02.537Z,15.39
2019-05-06T12:00:36.410Z,16.65
2019-05-06T12:03:05.444Z,17.16
2019-05-06T12:05:34.122Z,17.79
2019-05-06T12:08:08.028Z,14.76
2019-05-06T12:10:33.263Z,14.39
2019-05-06T12:13:02.840Z,13.15
2019-05-06T12:15:31.573Z,13.34
2019-05-06T12:18:00.238Z,13.47
2019-05-06T12:20:28.922Z,12.70
2019-05-06T12:22:57.587Z,12.34
2019-05-06T12:25:26.270Z,12.35
2019-05-06T12:27:54.948Z,11.93
2019-05-06T12:30:24.667Z,12.36
2019-05-06T12:33:13.059Z,12.90
2019-05-06T12:35:45.365Z,13.03
2019-05-06T12:38:29.655Z,13.66
2019-05-06T12:40:49.025Z,13.16
2019-05-06T12:43:39.847Z,13.06
2019-05-06T12:46:18.643Z,14.61
2019-05-06T12:48:47.338Z,14.37
2019-05-06T12:51:16.092Z,13.89
2019-05-06T12:53:44.827Z,12.85
2019-05-06T12:56:13.561Z,12.71
2019-05-06T12:58:44.314Z,12.75
2019-05-06T13:01:13.654Z,12.64
2019-05-06T13:03:43.220Z,13.53
2019-05-06T13:06:12.960Z,13.58
2019-05-06T13:08:56.821Z,12.85
2019-05-06T13:11:13.291Z,12.27
2019-05-06T13:13:56.596Z,11.71
2019-05-06T13:16:12.709Z,11.39
2019-05-06T13:18:46.910Z,11.74
2019-05-06T13:21:12.740Z,11.54
2019-05-06T13:23:48.479Z,11.14
2019-05-06T13:26:17.262Z,10.68
2019-05-06T13:28:50.309Z,10.26
2019-05-06T13:31:21.842Z,9.61
2019-05-06T13:33:54.878Z,9.42
2019-05-06T13:36:24.231Z,9.45
2019-05-06T13:39:09.066Z,9.54
2019-05-06T13:41:23.453Z,9.68
2019-05-06T13:44:02.615Z,10.01
2019-05-06T13:46:33.432Z,10.30
2019-05-06T13:49:22.662Z,10.49
2019-05-06T13:52:07.777Z,11.01
2019-05-06T13:54:36.832Z,11.12
2019-05-06T13:57:05.617Z,11.24
2019-05-06T13:59:35.197Z,11.41
2019-05-06T14:02:22.729Z,11.54
2019-05-06T14:04:52.726Z,11.74
2019-05-06T14:07:24.361Z,11.56
2019-05-06T14:09:53.204Z,11.97
2019-05-06T14:12:22.241Z,12.02
2019-05-06T14:14:52.686Z,12.10
2019-05-06T14:17:22.374Z,12.18
2019-05-06T14:19:53.406Z,12.40
2019-05-06T14:22:23.186Z,12.92
2019-05-06T14:25:01.672Z,13.95
2019-05-06T14:27:32.285Z,13.80
2019-05-06T14:30:10.825Z,13.90
2019-05-06T14:32:39.514Z,14.20
2019-05-06T14:35:08.268Z,16.03
2019-05-06T14:37:36.924Z,16.87
2019-05-06T14:40:07.454Z,16.06
2019-05-06T14:42:36.116Z,18.14
2019-05-06T14:45:05.181Z,19.96
2019-05-06T14:47:36.566Z,18.63
2019-05-06T14:50:06.335Z,18.80
2019-05-06T14:52:34.988Z,16.60
2019-05-06T14:55:22.571Z,14.98
2019-05-06T14:57:53.514Z,14.07
2019-05-06T15:00:23.066Z,13.75
2019-05-06T15:02:53.327Z,12.85
2019-05-06T15:05:22.736Z,12.41
2019-05-06T15:07:52.847Z,12.22
2019-05-06T15:10:23.958Z,12.28
2019-05-06T15:12:53.453Z,12.07
2019-05-06T15:15:22.919Z,12.03
2019-05-06T15:17:53.270Z,11.97
2019-05-06T15:20:22.678Z,11.88
2019-05-06T15:22:52.955Z,12.18
2019-05-06T15:25:22.269Z,12.34
2019-05-06T15:27:52.959Z,11.75
2019-05-06T15:30:28.566Z,11.52
2019-05-06T15:32:57.239Z,11.38
2019-05-06T15:35:44.987Z,11.47
2019-05-06T15:38:22.052Z,11.49
2019-05-06T15:40:52.422Z,11.24
2019-05-06T15:43:22.023Z,11.18
2019-05-06T15:45:52.582Z,11.13
2019-05-06T15:48:22.196Z,11.10
2019-05-06T15:50:53.050Z,11.29
2019-05-06T15:53:22.451Z,11.45
2019-05-06T15:55:53.283Z,11.48
2019-05-06T15:58:22.834Z,11.54
2019-05-06T16:00:53.185Z,11.67
2019-05-06T16:03:22.657Z,11.70
2019-05-06T16:05:52.843Z,11.62
2019-05-06T16:08:24.435Z,11.47
2019-05-06T16:10:58.438Z,11.43
2019-05-06T16:13:23.098Z,11.42
2019-05-06T16:15:53.196Z,11.40
2019-05-06T16:18:23.429Z,11.30
2019-05-06T16:20:52.321Z,11.22
2019-05-06T16:23:27.027Z,11.27
2019-05-06T16:25:55.796Z,11.40
2019-05-06T16:28:24.477Z,11.51
2019-05-06T16:30:53.633Z,11.59
2019-05-06T16:33:22.410Z,11.69
2019-05-06T16:35:52.202Z,11.69
2019-05-06T16:38:22.994Z,11.63
2019-05-06T16:40:57.709Z,11.40
2019-05-06T16:43:22.233Z,11.37
2019-05-06T16:45:53.213Z,11.19
2019-05-06T16:48:22.538Z,11.22
2019-05-06T16:50:51.457Z,11.18
2019-05-06T16:53:20.123Z,11.36
2019-05-06T16:56:09.771Z,11.34
2019-05-06T16:58:45.123Z,11.38
2019-05-06T17:01:14.917Z,11.33
2019-05-06T17:03:56.328Z,11.27
2019-05-06T17:06:27.952Z,11.03
2019-05-06T17:08:56.615Z,10.99
2019-05-06T17:11:30.596Z,11.01
2019-05-06T17:13:55.737Z,11.00
2019-05-06T17:16:24.409Z,10.81
2019-05-06T17:18:56.495Z,10.74
2019-05-06T17:21:23.492Z,10.70
2019-05-06T17:23:52.363Z,10.63
2019-05-06T17:26:22.521Z,10.47
2019-05-06T17:29:02.817Z,10.25
2019-05-06T17:31:44.913Z,9.93
2019-05-06T17:34:16.427Z,9.56
2019-05-06T17:36:45.306Z,9.36
2019-05-06T17:39:13.998Z,9.16
2019-05-06T17:41:48.631Z,8.96
2019-05-06T17:44:13.318Z,8.82
2019-05-06T17:46:54.883Z,8.80
2019-05-06T17:49:25.653Z,8.86
2019-05-06T17:52:03.076Z,8.86
2019-05-06T17:54:32.467Z,8.82
2019-05-06T17:57:03.800Z,8.72
2019-05-06T17:59:33.754Z,8.60
2019-05-06T18:02:04.693Z,8.53
2019-05-06T18:04:34.404Z,8.37
2019-05-06T18:07:03.224Z,7.85
2019-05-06T18:09:33.125Z,7.30
2019-05-06T18:12:03.170Z,6.94
2019-05-06T18:14:33.125Z,6.80
2019-05-06T18:17:03.645Z,6.78
2019-05-06T18:19:33.545Z,6.62
2019-05-06T18:22:03.858Z,6.58
2019-05-06T18:24:33.266Z,6.58
2019-05-06T18:27:02.795Z,6.61
2019-05-06T18:29:33.428Z,6.58
2019-05-06T18:32:03.717Z,6.58
2019-05-06T18:34:33.158Z,6.53
2019-05-06T18:37:03.173Z,6.47
2019-05-06T18:39:33.718Z,6.49
2019-05-06T18:42:16.095Z,6.41
2019-05-06T18:44:33.458Z,6.50
2019-05-06T18:47:02.846Z,6.50
2019-05-06T18:49:33.731Z,6.45
2019-05-06T18:52:02.223Z,6.44
2019-05-06T18:54:33.620Z,6.43
2019-05-06T18:57:04.297Z,6.42
2019-05-06T18:59:32.953Z,6.44
2019-05-06T19:02:02.336Z,6.44
2019-05-06T19:04:37.400Z,6.36
2019-05-06T19:07:14.565Z,6.37
2019-05-06T19:09:42.662Z,6.27
2019-05-06T19:12:12.842Z,6.25
2019-05-06T19:14:43.283Z,5.97
2019-05-06T19:17:13.143Z,6.05
2019-05-06T19:19:42.627Z,6.10
2019-05-06T19:22:13.787Z,6.11
2019-05-06T19:24:42.343Z,6.14
2019-05-06T19:27:12.731Z,6.11
2019-05-06T19:29:43.288Z,6.02
2019-05-06T19:32:12.277Z,5.99
2019-05-06T19:34:42.270Z,5.94
2019-05-06T19:37:11.229Z,6.04
2019-05-06T19:39:39.914Z,6.09
2019-05-06T19:42:08.602Z,6.14
2019-05-06T19:44:37.377Z,6.19
2019-05-06T19:47:06.041Z,6.20
2019-05-06T19:49:34.706Z,6.24
2019-05-06T19:52:03.399Z,6.33
2019-05-06T19:54:33.012Z,6.43
2019-05-06T19:57:02.554Z,6.43
2019-05-06T19:59:33.063Z,6.35
2019-05-06T20:02:01.982Z,6.33
2019-05-06T20:04:33.259Z,6.34
2019-05-06T20:07:32.671Z,6.37
2019-05-06T20:10:22.952Z,6.37
2019-05-06T20:13:04.516Z,6.40
2019-05-06T20:15:52.727Z,6.38
2019-05-06T20:18:21.421Z,6.32
2019-05-06T20:20:50.105Z,6.43
2019-05-06T20:23:18.773Z,6.47
2019-05-06T20:25:47.469Z,6.41
2019-05-06T20:28:16.133Z,6.43
2019-05-06T20:30:44.802Z,6.40
2019-05-06T20:33:13.704Z,6.43
2019-05-06T20:35:43.210Z,6.41
2019-05-06T20:38:12.450Z,6.35
2019-05-06T20:40:43.110Z,6.37
2019-05-06T20:43:19.314Z,6.20
2019-05-06T20:45:42.858Z,6.18
2019-05-06T20:48:12.877Z,6.27
2019-05-06T20:50:42.916Z,6.28
2019-05-06T20:53:12.207Z,6.40
2019-05-06T20:55:43.252Z,6.37
2019-05-06T20:58:12.214Z,6.42
2019-05-06T21:00:43.016Z,6.51
2019-05-06T21:03:12.367Z,6.51
2019-05-06T21:05:43.503Z,6.52
2019-05-06T21:08:13.018Z,6.57
2019-05-06T21:10:42.675Z,6.52
2019-05-06T21:13:13.312Z,6.55
2019-05-06T21:15:43.258Z,6.54
2019-05-06T21:18:12.331Z,6.47
2019-05-06T21:20:43.333Z,6.46
2019-05-06T21:23:11.520Z,6.47
2019-05-06T21:25:40.203Z,6.48
2019-05-06T21:28:08.862Z,6.42
2019-05-06T21:30:37.554Z,6.43
2019-05-06T21:33:06.213Z,6.45
2019-05-06T21:35:35.001Z,6.34
2019-05-06T21:38:03.767Z,6.41
2019-05-06T21:40:32.554Z,6.34
2019-05-06T21:43:02.055Z,6.32
2019-05-06T21:45:33.095Z,6.35
2019-05-06T21:48:02.789Z,6.34
2019-05-06T21:50:33.107Z,6.31
2019-05-06T21:53:02.698Z,6.27
2019-05-06T21:55:32.321Z,6.31
2019-05-06T21:58:02.216Z,6.30
2019-05-06T22:00:49.519Z,6.29
2019-05-06T22:03:18.581Z,6.30
2019-05-06T22:05:47.322Z,6.19
2019-05-06T22:08:16.360Z,6.14
2019-05-06T22:10:45.025Z,6.29
2019-05-06T22:13:14.660Z,6.35
2019-05-06T22:15:43.439Z,6.35
2019-05-06T22:18:12.615Z,6.22
2019-05-06T22:20:59.352Z,6.24
2019-05-06T22:23:47.406Z,6.27
2019-05-06T22:26:16.473Z,6.30
2019-05-06T22:28:45.159Z,6.26
2019-05-06T22:31:14.178Z,6.21
2019-05-06T22:33:42.994Z,6.22
2019-05-06T22:36:13.225Z,6.19
2019-05-06T22:38:44.166Z,6.14
2019-05-06T22:41:12.535Z,6.13
2019-05-06T22:43:42.380Z,6.02
2019-05-06T22:46:12.352Z,6.00
2019-05-06T22:48:43.324Z,5.99
2019-05-06T22:51:12.351Z,6.06
2019-05-06T22:53:42.472Z,6.01
2019-05-06T22:56:14.041Z,6.02
2019-05-06T22:58:42.920Z,5.98
2019-05-06T23:01:32.653Z,5.96
2019-05-06T23:04:02.110Z,5.95
2019-05-06T23:06:32.995Z,5.87
2019-05-06T23:09:02.504Z,5.87
2019-05-06T23:11:32.857Z,5.91
2019-05-06T23:14:02.753Z,5.89
2019-05-06T23:16:32.848Z,5.85
2019-05-06T23:19:02.225Z,5.87
2019-05-06T23:21:33.501Z,5.86
2019-05-06T23:24:02.178Z,5.73
2019-05-06T23:26:30.960Z,5.79
2019-05-06T23:28:59.631Z,5.83
2019-05-06T23:31:28.375Z,5.87
2019-05-06T23:33:57.156Z,5.83
2019-05-06T23:36:28.707Z,5.87
2019-05-06T23:39:34.246Z,5.84
2019-05-06T23:42:39.461Z,5.87
2019-05-06T23:45:44.246Z,5.81
2019-05-06T23:48:49.081Z,5.79
2019-05-06T23:51:54.090Z,5.77
2019-05-06T23:54:59.080Z,5.75
2019-05-06T23:57:26.409Z,5.67
2019-05-06T23:59:55.085Z,5.70
